createdAt,value
2023-04-16T00:00:56.996Z,15.18
2023-04-16T00:03:25.096Z,16.13
2023-04-16T00:05:55.636Z,15.10
2023-04-16T00:08:24.571Z,17.00
2023-04-16T00:10:52.240Z,14.48
2023-04-16T00:13:20.011Z,16.27
2023-04-16T00:15:49.037Z,17.33
2023-04-16T00:18:16.659Z,15.23
2023-04-16T00:20:44.286Z,14.45
2023-04-16T00:23:11.962Z,15.13
2023-04-16T00:25:39.590Z,16.35
2023-04-16T00:28:07.359Z,15.93
2023-04-16T00:30:35.883Z,16.83
2023-04-16T00:33:05.598Z,17.75
2023-04-16T00:35:46.509Z,16.90
2023-04-16T00:38:14.827Z,16.92
2023-04-16T00:40:42.480Z,18.33
2023-04-16T00:43:10.581Z,16.98
2023-04-16T00:45:38.336Z,17.85
2023-04-16T00:48:07.500Z,17.90
2023-04-16T00:50:38.394Z,17.00
2023-04-16T00:53:06.280Z,18.60
2023-04-16T00:55:33.947Z,18.10
2023-04-16T00:58:01.570Z,16.83
2023-04-16T01:00:29.336Z,16.70
2023-04-16T01:02:57.594Z,18.75
2023-04-16T01:05:26.958Z,18.40
2023-04-16T01:07:54.599Z,18.02
2023-04-16T01:10:26.080Z,17.65
2023-04-16T01:12:53.761Z,17.10
2023-04-16T01:15:21.429Z,17.67
2023-04-16T01:17:49.399Z,17.00
2023-04-16T01:20:25.926Z,17.10
2023-04-16T01:22:57.249Z,18.38
2023-04-16T01:25:27.250Z,18.02
2023-04-16T01:27:57.291Z,18.33
2023-04-16T01:30:25.030Z,17.38
2023-04-16T01:32:52.784Z,18.95
2023-04-16T01:35:20.490Z,18.95
2023-04-16T01:37:48.149Z,18.58
2023-04-16T01:40:17.330Z,18.48
2023-04-16T01:42:45.109Z,18.00
2023-04-16T01:45:15.863Z,17.45
2023-04-16T01:47:43.811Z,16.13
2023-04-16T01:50:12.714Z,19.25
2023-04-16T01:52:41.471Z,17.75
2023-04-16T01:55:10.075Z,18.48
2023-04-16T01:57:38.965Z,18.85
2023-04-16T02:00:08.393Z,18.80
2023-04-16T02:02:36.863Z,18.42
2023-04-16T02:05:05.344Z,19.88
2023-04-16T02:07:33.085Z,20.58
2023-04-16T02:10:00.773Z,19.13
2023-04-16T02:12:28.576Z,18.65
2023-04-16T02:14:58.120Z,21.02
2023-04-16T02:17:31.556Z,19.60
2023-04-16T02:19:59.955Z,18.00
2023-04-16T02:22:27.619Z,18.15
2023-04-16T02:24:55.383Z,18.30
2023-04-16T02:27:23.077Z,18.40
2023-04-16T02:29:50.911Z,18.25
2023-04-16T02:32:20.853Z,17.80
2023-04-16T02:34:48.522Z,18.15
2023-04-16T02:37:16.272Z,17.83
2023-04-16T02:39:43.949Z,19.42
2023-04-16T02:42:11.612Z,18.42
2023-04-16T02:44:39.223Z,17.52
2023-04-16T02:47:06.922Z,18.98
2023-04-16T02:49:36.629Z,17.63
2023-04-16T02:52:04.764Z,17.08
2023-04-16T02:54:32.407Z,19.75
2023-04-16T02:57:00.020Z,19.95
2023-04-16T02:59:27.670Z,17.58
2023-04-16T03:01:57.311Z,16.48
2023-04-16T03:04:25.802Z,17.60
2023-04-16T03:06:54.860Z,17.42
2023-04-16T03:09:22.505Z,15.55
2023-04-16T03:11:50.214Z,17.00
2023-04-16T03:14:17.941Z,17.27
2023-04-16T03:16:45.610Z,19.30
2023-04-16T03:19:13.321Z,16.98
2023-04-16T03:21:40.991Z,17.63
2023-04-16T03:24:10.006Z,17.52
2023-04-16T03:26:37.693Z,16.38
2023-04-16T03:29:05.396Z,17.15
2023-04-16T03:31:33.219Z,19.20
2023-04-16T03:34:01.084Z,17.35
2023-04-16T03:36:28.695Z,16.60
2023-04-16T03:38:56.371Z,17.50
2023-04-16T03:41:25.415Z,19.42
2023-04-16T03:43:53.099Z,18.63
2023-04-16T03:46:20.914Z,17.17
2023-04-16T03:48:48.639Z,19.50
2023-04-16T03:51:16.352Z,17.15
2023-04-16T03:53:44.013Z,18.63
2023-04-16T03:56:11.660Z,19.40
2023-04-16T03:58:40.755Z,18.40
2023-04-16T04:01:08.462Z,17.92
2023-04-16T04:03:36.341Z,16.98
2023-04-16T04:06:07.863Z,16.90
2023-04-16T04:08:35.649Z,16.50
2023-04-16T04:11:03.257Z,16.65
2023-04-16T04:13:31.001Z,15.50
2023-04-16T04:16:00.277Z,17.45
2023-04-16T04:18:28.072Z,16.73
2023-04-16T04:20:55.788Z,16.58
2023-04-16T04:23:23.554Z,17.15
2023-04-16T04:25:51.389Z,19.33
2023-04-16T04:28:19.118Z,18.92
2023-04-16T04:30:46.792Z,16.45
2023-04-16T04:33:15.850Z,18.85
2023-04-16T04:35:43.464Z,16.88
2023-04-16T04:38:11.221Z,17.85
2023-04-16T04:40:39.222Z,18.15
2023-04-16T04:43:06.859Z,17.65
2023-04-16T04:45:34.605Z,15.88
2023-04-16T04:48:02.358Z,17.15
2023-04-16T04:50:31.483Z,16.10
2023-04-16T04:52:59.070Z,17.58
2023-04-16T04:55:26.866Z,15.52
2023-04-16T04:57:54.543Z,15.55
2023-04-16T05:00:22.303Z,16.27
2023-04-16T05:02:51.083Z,17.27
2023-04-16T05:05:18.913Z,17.10
2023-04-16T05:07:47.944Z,16.50
2023-04-16T05:10:15.714Z,14.80
2023-04-16T05:12:43.468Z,16.40
2023-04-16T05:15:11.682Z,17.77
2023-04-16T05:17:39.302Z,15.95
2023-04-16T05:20:11.187Z,16.85
2023-04-16T05:22:38.884Z,16.42
2023-04-16T05:25:08.777Z,15.50
2023-04-16T05:27:36.978Z,16.25
2023-04-16T05:30:04.979Z,15.57
2023-04-16T05:32:32.693Z,16.17
2023-04-16T05:35:00.444Z,16.35
2023-04-16T05:37:28.405Z,17.02
2023-04-16T05:39:56.061Z,15.10
2023-04-16T05:42:27.518Z,17.30
2023-04-16T05:44:55.430Z,15.10
2023-04-16T05:47:25.443Z,15.15
2023-04-16T05:49:53.130Z,17.92
2023-04-16T05:52:20.871Z,16.63
2023-04-16T05:54:48.798Z,15.55
2023-04-16T05:57:16.576Z,16.88
2023-04-16T05:59:45.630Z,15.43
2023-04-16T06:02:13.790Z,15.18
2023-04-16T06:04:50.724Z,14.65
2023-04-16T06:07:18.948Z,15.15
2023-04-16T06:09:46.693Z,13.65
2023-04-16T06:12:14.459Z,15.73
2023-04-16T06:14:42.154Z,15.75
2023-04-16T06:17:11.228Z,15.90
2023-04-16T06:19:38.911Z,13.80
2023-04-16T06:22:08.417Z,14.68
2023-04-16T06:24:36.594Z,15.23
2023-04-16T06:27:04.407Z,15.65
2023-04-16T06:29:40.445Z,14.23
2023-04-16T06:32:09.791Z,14.95
2023-04-16T06:34:39.830Z,13.25
2023-04-16T06:37:10.366Z,13.38
2023-04-16T06:39:38.382Z,14.48
2023-04-16T06:42:08.076Z,15.40
2023-04-16T06:44:36.637Z,13.23
2023-04-16T06:47:04.645Z,13.68
2023-04-16T06:49:32.553Z,14.93
2023-04-16T06:52:03.845Z,14.77
2023-04-16T06:54:33.414Z,13.57
2023-04-16T06:57:01.083Z,14.70
2023-04-16T06:59:28.774Z,14.30
2023-04-16T07:01:56.505Z,13.95
2023-04-16T07:04:24.328Z,14.38
2023-04-16T07:06:52.997Z,14.15
2023-04-16T07:09:23.035Z,13.50
2023-04-16T07:11:51.331Z,15.10
2023-04-16T07:14:19.029Z,14.07
2023-04-16T07:16:46.827Z,14.98
2023-04-16T07:19:14.544Z,16.10
2023-04-16T07:21:43.692Z,15.48
2023-04-16T07:24:11.770Z,13.10
2023-04-16T07:26:41.090Z,13.15
2023-04-16T07:29:11.280Z,12.50
2023-04-16T07:31:39.744Z,13.85
2023-04-16T07:34:07.488Z,13.80
2023-04-16T07:36:35.189Z,13.27
2023-04-16T07:39:02.873Z,15.65
2023-04-16T07:41:30.982Z,13.93
2023-04-16T07:43:59.876Z,15.35
2023-04-16T07:46:33.160Z,14.52
2023-04-16T07:49:07.619Z,13.20
2023-04-16T07:51:37.514Z,13.65
2023-04-16T07:54:05.350Z,14.68
2023-04-16T07:56:33.017Z,13.68
2023-04-16T07:59:14.372Z,12.77
2023-04-16T08:01:49.402Z,12.90
2023-04-16T08:04:22.978Z,14.50
2023-04-16T08:06:51.325Z,15.77
2023-04-16T08:09:20.149Z,14.82
2023-04-16T08:11:49.186Z,14.73
2023-04-16T08:14:18.272Z,13.18
2023-04-16T08:16:45.955Z,12.93
2023-04-16T08:19:13.728Z,14.65
2023-04-16T08:21:41.663Z,15.02
2023-04-16T08:24:09.269Z,18.45
2023-04-16T08:26:36.907Z,16.05
2023-04-16T08:29:04.688Z,16.20
2023-04-16T08:31:34.083Z,13.63
2023-04-16T08:34:01.986Z,16.98
2023-04-16T08:36:29.737Z,16.55
2023-04-16T08:38:57.344Z,14.52
2023-04-16T08:41:27.924Z,13.60
2023-04-16T08:43:57.305Z,13.15
2023-04-16T08:46:26.520Z,14.77
2023-04-16T08:48:56.729Z,15.15
2023-04-16T08:51:24.895Z,13.82
2023-04-16T08:53:54.749Z,14.45
2023-04-16T08:56:24.930Z,13.82
2023-04-16T08:58:56.246Z,15.93
2023-04-16T09:01:26.625Z,15.88
2023-04-16T09:03:56.747Z,13.38
2023-04-16T09:06:24.738Z,14.00
2023-04-16T09:08:55.025Z,14.57
2023-04-16T09:11:22.766Z,14.43
2023-04-16T09:13:50.662Z,13.40
2023-04-16T09:16:19.540Z,14.90
2023-04-16T09:18:47.781Z,14.88
2023-04-16T09:21:17.208Z,13.98
2023-04-16T09:23:44.944Z,13.93
2023-04-16T09:26:12.687Z,14.07
2023-04-16T09:28:41.768Z,15.05
2023-04-16T09:31:14.867Z,13.65
2023-04-16T09:33:43.444Z,14.57
2023-04-16T09:36:11.856Z,15.32
2023-04-16T09:38:51.783Z,15.85
2023-04-16T09:41:25.292Z,14.25
2023-04-16T09:43:57.719Z,15.07
2023-04-16T09:46:30.821Z,15.23
2023-04-16T09:49:01.033Z,13.75
2023-04-16T09:51:37.990Z,15.38
2023-04-16T09:54:07.488Z,14.18
2023-04-16T09:56:40.330Z,16.98
2023-04-16T09:59:17.583Z,15.65
2023-04-16T10:01:46.712Z,17.05
2023-04-16T10:04:14.631Z,17.60
2023-04-16T10:06:44.116Z,15.15
2023-04-16T10:09:13.457Z,16.77
2023-04-16T10:11:41.465Z,15.88
2023-04-16T10:14:09.960Z,15.40
2023-04-16T10:16:41.046Z,15.48
2023-04-16T10:19:09.898Z,16.73
2023-04-16T10:21:37.892Z,17.92
2023-04-16T10:24:06.277Z,15.88
2023-04-16T10:26:37.026Z,15.75
2023-04-16T10:29:07.254Z,17.90
2023-04-16T10:31:36.874Z,16.13
2023-04-16T10:34:04.870Z,15.63
2023-04-16T10:36:36.956Z,16.83
2023-04-16T10:39:05.531Z,17.70
2023-04-16T10:41:35.572Z,17.30
2023-04-16T10:44:09.394Z,16.50
2023-04-16T10:46:39.515Z,17.70
2023-04-16T10:49:15.007Z,17.48
2023-04-16T10:51:43.302Z,17.67
2023-04-16T10:54:22.150Z,16.70
2023-04-16T10:56:51.866Z,16.13
2023-04-16T10:59:20.613Z,17.83
2023-04-16T11:01:49.862Z,16.15
2023-04-16T11:04:31.015Z,17.13
2023-04-16T11:07:06.487Z,16.63
2023-04-16T11:09:53.236Z,15.65
2023-04-16T11:12:24.204Z,18.65
2023-04-16T11:14:54.172Z,16.27
2023-04-16T11:17:23.289Z,16.85
2023-04-16T11:19:53.514Z,16.25
2023-04-16T11:22:21.603Z,17.95
2023-04-16T11:24:55.706Z,17.45
2023-04-16T11:27:26.385Z,17.25
2023-04-16T11:30:01.868Z,16.90
2023-04-16T11:32:32.524Z,18.05
2023-04-16T11:35:03.450Z,17.05
2023-04-16T11:37:34.899Z,16.40
2023-04-16T11:40:04.815Z,16.95
2023-04-16T11:42:37.149Z,16.70
2023-04-16T11:45:06.140Z,16.67
2023-04-16T11:47:42.989Z,16.88
2023-04-16T11:50:21.902Z,16.55
2023-04-16T11:52:50.516Z,16.92
2023-04-16T11:55:18.536Z,17.63
2023-04-16T11:57:47.728Z,17.70
2023-04-16T12:00:16.119Z,17.08
2023-04-16T12:02:46.040Z,19.23
2023-04-16T12:05:31.877Z,16.85
2023-04-16T12:08:01.538Z,16.85
2023-04-16T12:10:30.061Z,16.08
2023-04-16T12:13:13.469Z,16.17
2023-04-16T12:15:48.542Z,16.50
2023-04-16T12:18:16.761Z,14.90
2023-04-16T12:20:45.797Z,15.95
2023-04-16T12:23:24.059Z,16.17
2023-04-16T12:25:52.059Z,16.00
2023-04-16T12:28:30.351Z,15.98
2023-04-16T12:30:58.085Z,15.40
2023-04-16T12:33:28.194Z,17.35
2023-04-16T12:35:56.404Z,14.50
2023-04-16T12:38:25.578Z,17.13
2023-04-16T12:40:56.666Z,15.50
2023-04-16T12:43:24.903Z,16.10
2023-04-16T12:45:53.977Z,13.25
2023-04-16T12:48:21.870Z,17.88
2023-04-16T12:50:49.493Z,15.52
2023-04-16T12:53:17.227Z,16.02
2023-04-16T12:55:45.340Z,16.63
2023-04-16T12:58:13.151Z,15.32
2023-04-16T13:00:41.174Z,17.45
2023-04-16T13:03:14.271Z,14.90
2023-04-16T13:05:42.267Z,16.98
2023-04-16T13:08:09.984Z,16.85
2023-04-16T13:10:38.050Z,15.18
2023-04-16T13:13:06.418Z,17.00
2023-04-16T13:15:34.486Z,15.38
2023-04-16T13:18:02.307Z,16.02
2023-04-16T13:20:31.401Z,16.27
2023-04-16T13:22:59.784Z,15.05
2023-04-16T13:25:27.702Z,14.52
2023-04-16T13:27:55.474Z,13.15
2023-04-16T13:30:25.395Z,13.60
2023-04-16T13:32:53.141Z,13.00
2023-04-16T13:35:20.843Z,14.02
2023-04-16T13:37:49.760Z,14.27
2023-04-16T13:40:17.732Z,14.32
2023-04-16T13:42:45.322Z,12.20
2023-04-16T13:45:12.891Z,13.00
2023-04-16T13:47:42.390Z,12.23
2023-04-16T13:50:10.988Z,12.10
2023-04-16T13:52:40.982Z,10.65
2023-04-16T13:55:13.661Z,11.35
2023-04-16T13:57:41.546Z,11.02
2023-04-16T14:00:12.564Z,11.18
2023-04-16T14:02:41.138Z,10.90
2023-04-16T14:05:09.333Z,11.52
2023-04-16T14:07:40.990Z,10.32
2023-04-16T14:10:11.269Z,9.63
2023-04-16T14:12:39.273Z,10.68
2023-04-16T14:15:09.623Z,11.73
2023-04-16T14:17:37.942Z,10.27
2023-04-16T14:20:06.933Z,9.05
2023-04-16T14:22:34.665Z,10.18
2023-04-16T14:25:03.392Z,10.32
2023-04-16T14:27:32.566Z,10.18
2023-04-16T14:30:00.406Z,10.93
2023-04-16T14:32:28.671Z,11.32
2023-04-16T14:34:56.411Z,8.88
2023-04-16T14:37:24.130Z,9.80
2023-04-16T14:39:51.908Z,11.55
2023-04-16T14:42:19.568Z,10.30
2023-04-16T14:44:48.875Z,11.10
2023-04-16T14:47:16.499Z,11.20
2023-04-16T14:49:45.856Z,10.15
2023-04-16T14:52:16.865Z,10.95
2023-04-16T14:54:44.548Z,9.85
2023-04-16T14:57:12.144Z,9.40
2023-04-16T14:59:39.829Z,10.50
2023-04-16T15:02:10.351Z,11.35
2023-04-16T15:04:38.349Z,9.65
2023-04-16T15:07:06.060Z,11.15
2023-04-16T15:09:34.833Z,11.48
2023-04-16T15:12:02.763Z,11.85
2023-04-16T15:14:30.424Z,10.70
2023-04-16T15:16:58.109Z,10.77
2023-04-16T15:19:27.786Z,9.52
2023-04-16T15:21:55.869Z,9.98
2023-04-16T15:24:23.623Z,9.88
2023-04-16T15:26:51.386Z,10.00
2023-04-16T15:29:18.940Z,9.85
2023-04-16T15:31:46.611Z,9.45
2023-04-16T15:34:14.292Z,9.63
2023-04-16T15:36:43.428Z,10.30
2023-04-16T15:39:11.682Z,10.55
2023-04-16T15:41:53.387Z,8.93
2023-04-16T15:44:27.269Z,9.60
2023-04-16T15:46:55.202Z,9.10
2023-04-16T15:49:23.346Z,8.90
2023-04-16T15:51:52.546Z,9.18
2023-04-16T15:54:20.282Z,8.57
2023-04-16T15:56:48.125Z,7.35
2023-04-16T15:59:15.986Z,6.97
2023-04-16T16:01:43.640Z,7.88
2023-04-16T16:04:11.916Z,8.20
2023-04-16T16:06:39.573Z,6.97
2023-04-16T16:09:08.981Z,6.78
2023-04-16T16:11:40.587Z,6.00
2023-04-16T16:14:08.521Z,6.45
2023-04-16T16:16:36.441Z,6.05
2023-04-16T16:19:05.876Z,5.38
2023-04-16T16:21:34.776Z,4.60
2023-04-16T16:24:02.509Z,4.82
2023-04-16T16:26:31.958Z,4.43
2023-04-16T16:28:59.663Z,5.13
2023-04-16T16:31:27.392Z,6.22
2023-04-16T16:33:55.076Z,7.50
2023-04-16T16:36:22.875Z,6.30
2023-04-16T16:38:50.489Z,5.38
2023-04-16T16:41:18.115Z,6.57
2023-04-16T16:43:47.105Z,6.07
2023-04-16T16:46:14.923Z,6.13
2023-04-16T16:48:42.825Z,5.55
2023-04-16T16:51:11.072Z,5.15
2023-04-16T16:53:38.650Z,5.28
2023-04-16T16:56:06.913Z,5.45
2023-04-16T16:58:34.615Z,6.07
2023-04-16T17:01:03.712Z,6.45
2023-04-16T17:03:32.924Z,6.07
2023-04-16T17:06:01.084Z,5.82
2023-04-16T17:08:29.192Z,5.82
2023-04-16T17:10:56.844Z,5.28
2023-04-16T17:13:25.280Z,4.95
2023-04-16T17:15:53.170Z,5.40
2023-04-16T17:18:23.818Z,5.07
2023-04-16T17:20:51.529Z,4.45
2023-04-16T17:23:19.190Z,4.82
2023-04-16T17:25:47.052Z,5.10
2023-04-16T17:28:14.870Z,5.60
2023-04-16T17:30:42.553Z,6.53
2023-04-16T17:33:10.491Z,5.63
2023-04-16T17:35:40.490Z,5.63
2023-04-16T17:38:08.350Z,6.22
2023-04-16T17:40:36.201Z,6.35
2023-04-16T17:43:03.780Z,5.55
2023-04-16T17:45:31.642Z,5.75
2023-04-16T17:47:59.878Z,6.20
2023-04-16T17:50:27.946Z,6.15
2023-04-16T17:52:58.097Z,6.20
2023-04-16T17:55:27.178Z,5.88
2023-04-16T17:57:56.454Z,7.07
2023-04-16T18:00:24.172Z,7.25
2023-04-16T18:02:52.481Z,7.40
2023-04-16T18:05:21.757Z,7.10
2023-04-16T18:07:50.485Z,7.55
2023-04-16T18:10:22.333Z,7.20
2023-04-16T18:12:50.068Z,6.80
2023-04-16T18:15:17.968Z,7.40
2023-04-16T18:17:46.132Z,6.78
2023-04-16T18:20:16.866Z,7.00
2023-04-16T18:22:44.500Z,7.15
2023-04-16T18:25:12.232Z,7.25
2023-04-16T18:27:41.868Z,7.57
2023-04-16T18:30:20.101Z,9.82
2023-04-16T18:33:16.601Z,8.05
2023-04-16T18:35:41.604Z,7.90
2023-04-16T18:38:09.557Z,8.35
2023-04-16T18:40:38.092Z,8.75
2023-04-16T18:43:07.591Z,8.43
2023-04-16T18:45:36.247Z,7.22
2023-04-16T18:48:04.318Z,7.47
2023-04-16T18:50:32.631Z,8.13
2023-04-16T18:53:00.504Z,7.70
2023-04-16T18:55:28.624Z,7.78
2023-04-16T18:57:57.637Z,7.03
2023-04-16T19:00:26.772Z,8.48
2023-04-16T19:02:55.778Z,7.85
2023-04-16T19:05:23.635Z,7.95
2023-04-16T19:07:51.229Z,7.40
2023-04-16T19:10:19.036Z,7.03
2023-04-16T19:12:49.315Z,8.02
2023-04-16T19:15:17.028Z,8.10
2023-04-16T19:17:46.715Z,7.30
2023-04-16T19:20:15.264Z,7.47
2023-04-16T19:22:43.238Z,6.82
2023-04-16T19:25:11.282Z,8.38
2023-04-16T19:27:38.902Z,7.50
2023-04-16T19:30:10.520Z,8.25
2023-04-16T19:32:38.528Z,7.70
2023-04-16T19:35:08.306Z,7.25
2023-04-16T19:37:36.291Z,7.45
2023-04-16T19:40:05.980Z,7.30
2023-04-16T19:42:34.078Z,7.85
2023-04-16T19:45:03.060Z,7.95
2023-04-16T19:47:30.936Z,7.22
2023-04-16T19:49:58.806Z,7.85
2023-04-16T19:52:30.557Z,8.25
2023-04-16T19:54:58.325Z,8.70
2023-04-16T19:57:26.068Z,8.77
2023-04-16T19:59:55.104Z,8.82
2023-04-16T20:02:23.239Z,10.90
2023-04-16T20:04:53.077Z,8.40
2023-04-16T20:07:20.819Z,7.97
2023-04-16T20:09:50.879Z,8.52
2023-04-16T20:12:18.548Z,7.47
2023-04-16T20:14:50.797Z,7.32
2023-04-16T20:17:20.974Z,8.30
2023-04-16T20:19:49.608Z,7.53
2023-04-16T20:22:18.610Z,7.53
2023-04-16T20:24:50.644Z,7.60
2023-04-16T20:27:20.871Z,8.43
2023-04-16T20:29:49.164Z,9.00
2023-04-16T20:32:17.934Z,8.55
2023-04-16T20:34:46.026Z,8.45
2023-04-16T20:37:13.929Z,8.68
2023-04-16T20:39:44.524Z,8.48
2023-04-16T20:42:12.796Z,8.63
2023-04-16T20:44:41.769Z,8.57
2023-04-16T20:47:10.072Z,8.90
2023-04-16T20:49:38.395Z,8.52
2023-04-16T20:52:07.312Z,8.07
2023-04-16T20:54:35.151Z,8.93
2023-04-16T20:57:04.731Z,8.35
2023-04-16T20:59:32.704Z,9.18
2023-04-16T21:02:01.794Z,8.65
2023-04-16T21:04:29.775Z,7.45
2023-04-16T21:06:57.533Z,9.23
2023-04-16T21:09:25.294Z,8.13
2023-04-16T21:11:52.979Z,8.98
2023-04-16T21:14:20.790Z,8.65
2023-04-16T21:16:48.444Z,8.30
2023-04-16T21:19:17.461Z,9.35
2023-04-16T21:21:45.383Z,8.30
2023-04-16T21:24:13.027Z,8.88
2023-04-16T21:26:40.817Z,9.75
2023-04-16T21:29:08.511Z,8.85
2023-04-16T21:31:36.565Z,9.57
2023-04-16T21:34:04.251Z,9.70
2023-04-16T21:36:34.003Z,8.80
2023-04-16T21:39:02.099Z,9.88
2023-04-16T21:41:29.723Z,10.10
2023-04-16T21:43:57.478Z,8.48
2023-04-16T21:46:26.296Z,8.50
2023-04-16T21:48:54.014Z,9.15
2023-04-16T21:51:28.881Z,9.60
2023-04-16T21:53:58.352Z,8.95
2023-04-16T21:56:26.371Z,9.52
2023-04-16T21:58:54.073Z,9.10
2023-04-16T22:01:22.045Z,9.55
2023-04-16T22:03:51.790Z,9.88
2023-04-16T22:06:20.332Z,9.98
2023-04-16T22:08:49.650Z,10.27
2023-04-16T22:11:18.621Z,9.18
2023-04-16T22:13:47.816Z,8.77
2023-04-16T22:16:15.708Z,9.68
2023-04-16T22:18:43.510Z,9.82
2023-04-16T22:21:11.388Z,9.15
2023-04-16T22:23:39.015Z,10.55
2023-04-16T22:26:06.921Z,10.40
2023-04-16T22:28:35.985Z,10.02
2023-04-16T22:31:03.782Z,10.23
2023-04-16T22:33:31.621Z,9.75
2023-04-16T22:36:00.405Z,10.32
2023-04-16T22:38:28.086Z,9.30
2023-04-16T22:40:55.868Z,9.93
2023-04-16T22:43:23.862Z,8.52
2023-04-16T22:46:04.802Z,9.98
2023-04-16T22:48:33.836Z,9.32
2023-04-16T22:51:01.704Z,9.27
2023-04-16T22:53:29.608Z,9.43
2023-04-16T22:55:57.337Z,9.75
2023-04-16T22:58:25.436Z,8.48
2023-04-16T23:00:56.737Z,10.90
2023-04-16T23:03:24.801Z,9.88
2023-04-16T23:05:52.691Z,9.73
2023-04-16T23:08:21.529Z,10.43
2023-04-16T23:10:49.693Z,9.38
2023-04-16T23:13:17.370Z,10.10
2023-04-16T23:15:47.152Z,10.43
2023-04-16T23:18:16.259Z,10.02
2023-04-16T23:20:43.856Z,10.40
2023-04-16T23:23:11.469Z,9.82
2023-04-16T23:25:41.728Z,11.05
2023-04-16T23:28:09.357Z,10.18
2023-04-16T23:30:37.176Z,10.35
2023-04-16T23:33:05.042Z,10.18
2023-04-16T23:35:34.054Z,9.90
2023-04-16T23:38:01.706Z,10.50
2023-04-16T23:40:29.371Z,11.05
2023-04-16T23:42:57.103Z,10.52
2023-04-16T23:45:24.897Z,10.18
2023-04-16T23:47:52.574Z,10.93
2023-04-16T23:50:21.730Z,10.02
2023-04-16T23:52:50.935Z,9.75
2023-04-16T23:55:18.534Z,10.35
2023-04-16T23:57:46.245Z,10.30
